Flight Track Log - Related Links

Times and Time Zones

All times are in EDT time to prevent confusion due to time zone crossing. See the CTL71 flight status page for this flight to view local times or setup timezone preferences in your user account.

Time Position Orientation Groundspeed Altitude Reporting Facility
EDT Latitude Longitude Course Direction KTS MPH feet Rate Location/Type
Wed 09:35:40 AM 33.5683 -86.7489 57° Northeast 113 130 1,100  Level Atlanta Center
Wed 09:36:11 AM 33.5792 -86.7292 57° Northeast 119 137 1,500 857 Climbing Atlanta Center
Wed 09:37:11 AM 33.6050 -86.6950 48° Northeast 147 169 2,400 793 Climbing Atlanta Center
Wed 09:38:12 AM 33.6286 -86.6583 52° Northeast 137 158 3,100 738 Climbing Atlanta Center
Wed 09:39:13 AM 33.6503 -86.6217 55° Northeast 137 158 3,900 793 Climbing Atlanta Center
Wed 09:40:13 AM 33.6761 -86.5800 53° Northeast 139 160 4,700 629 Climbing Atlanta Center
Wed 09:41:17 AM 33.7022 -86.5358 55° Northeast 147 169 5,200 532 Climbing Atlanta Center
Wed 09:42:17 AM 33.7281 -86.4992 50° Northeast 147 169 5,800 550 Climbing Atlanta Center
Wed 09:43:17 AM 33.7475 -86.4572 61° Northeast 147 169 6,300 500 Climbing Atlanta Center
Wed 09:44:17 AM 33.7714 -86.4153 56° Northeast 147 169 6,800 450 Climbing Atlanta Center
Wed 09:45:17 AM 33.7953 -86.3711 57° Northeast 147 169 7,200 450 Climbing Atlanta Center
Wed 09:46:17 AM 33.8167 -86.3342 55° Northeast 147 169 7,700 500 Climbing Atlanta Center
Wed 09:47:17 AM 33.8406 -86.2922 56° Northeast 147 169 8,200 450 Climbing Atlanta Center
Wed 09:48:17 AM 33.8661 -86.2503 54° Northeast 147 169 8,600 400 Climbing Atlanta Center
Wed 09:49:17 AM 33.8878 -86.2133 55° Northeast 147 169 9,000 200 Climbing Atlanta Center
Wed 09:50:17 AM 33.9114 -86.1689 57° Northeast 147 169 9,000  Level Atlanta Center
Wed 09:51:18 AM 33.9372 -86.1219 56° Northeast 152 175 9,000  Level Atlanta Center
Wed 09:52:17 AM 33.9592 -86.0725 62° Northeast 157 181 9,000  Level Atlanta Center
Wed 09:53:17 AM 33.9850 -86.0206 59° Northeast 163 188 9,000  Level Atlanta Center
Wed 09:54:17 AM 34.0025 -85.9708 67° East 163 188 9,000  Level Atlanta Center
Wed 09:55:17 AM 34.0242 -85.9186 63° Northeast 163 188 9,000 50 Level Atlanta Center
Wed 09:56:17 AM 34.0436 -85.8664 66° East 163 188 9,100  Climbing Atlanta Center
Wed 09:57:17 AM 34.0675 -85.8142 61° Northeast 163 188 9,000 -50 Descending Atlanta Center
Wed 09:58:17 AM 34.0911 -85.7644 60° Northeast 163 188 9,000  Level Atlanta Center
Wed 09:59:17 AM 34.1128 -85.7122 63° Northeast 168 193 9,000 50 Level Atlanta Center
Wed 10:00:17 AM 34.1342 -85.6600 64° Northeast 168 193 9,100  Climbing Atlanta Center
Wed 10:01:17 AM 34.1494 -85.6103 70° East 168 193 9,000 -50 Descending Atlanta Center
Wed 10:02:17 AM 34.1772 -85.5553 59° Northeast 173 199 9,000  Level Atlanta Center
Wed 10:03:17 AM 34.1967 -85.5031 66° East 173 199 9,000  Level Atlanta Center
Wed 10:04:17 AM 34.2161 -85.4531 65° Northeast 173 199 9,000  Level Atlanta Center
Wed 10:05:17 AM 34.2397 -85.4058 59° Northeast 167 192 9,000  Level Atlanta Center
Wed 10:06:18 AM 34.2589 -85.3533 66° East 167 192 9,000  Level Atlanta Center
Wed 10:07:17 AM 34.2803 -85.2983 65° Northeast 172 198 9,000  Level Atlanta Center
Wed 10:08:17 AM 34.2997 -85.2508 64° Northeast 167 192 9,000  Level Atlanta Center
Wed 10:09:17 AM 34.3231 -85.1958 63° Northeast 167 192 9,000  Level Atlanta Center
Wed 10:10:17 AM 34.3403 -85.1458 67° East 167 192 9,000  Level Atlanta Center
Wed 10:11:17 AM 34.3617 -85.0831 68° East 173 199 9,000  Level Atlanta Center
Wed 10:12:17 AM 34.3831 -85.0331 63° Northeast 168 193 9,000 50 Level Atlanta Center
Wed 10:13:17 AM 34.4064 -84.9778 63° Northeast 173 199 9,100 50 Climbing Atlanta Center
Wed 10:14:17 AM 34.4256 -84.9278 65° Northeast 173 199 9,100 -50 Level Atlanta Center
Wed 10:15:17 AM 34.4467 -84.8750 64° Northeast 173 199 9,000 -50 Descending Atlanta Center
Wed 10:16:17 AM 34.4700 -84.8225 62° Northeast 173 199 9,000  Level Atlanta Center
Wed 10:17:17 AM 34.4914 -84.7697 64° Northeast 173 199 9,000  Level Atlanta Center
Wed 10:18:17 AM 34.5103 -84.7169 67° East 167 192 9,000  Level Atlanta Center
Wed 10:19:17 AM 34.5272 -84.6717 66° East 172 198 9,000  Level Atlanta Center
Wed 10:20:17 AM 34.5483 -84.6189 64° Northeast 172 198 9,000  Level Atlanta Center
Wed 10:21:17 AM 34.5694 -84.5661 64° Northeast 172 198 9,000  Level Atlanta Center
Wed 10:22:17 AM 34.5906 -84.5156 63° Northeast 172 198 9,000  Level Atlanta Center
Wed 10:23:17 AM 34.6075 -84.4603 70° East 172 198 9,000  Level Atlanta Center
Wed 10:24:17 AM 34.6306 -84.4075 62° Northeast 172 198 9,000  Level Atlanta Center
Wed 10:25:17 AM 34.6517 -84.3494 66° East 172 198 9,000 50 Level Atlanta Center
Wed 10:26:17 AM 34.6728 -84.2939 65° Northeast 172 198 9,100  Climbing Atlanta Center
Wed 10:27:17 AM 34.6914 -84.2433 66° East 172 198 9,000 -50 Descending Atlanta Center
Wed 10:28:17 AM 34.7125 -84.1953 62° Northeast 172 198 9,000 50 Level Atlanta Center
Wed 10:29:17 AM 34.7314 -84.1450 65° Northeast 166 191 9,100  Climbing Atlanta Center
Wed 10:30:17 AM 34.7542 -84.0969 60° Northeast 161 185 9,000  Descending Atlanta Center
Wed 10:31:17 AM 34.7794 -84.0489 57° Northeast 156 180 9,100  Climbing Atlanta Center
Wed 10:32:17 AM 34.7981 -83.9933 68° East 162 186 9,000 -50 Descending Atlanta Center
Wed 10:33:17 AM 34.8169 -83.9400 67° East 162 186 9,000 50 Level Atlanta Center
Wed 10:34:17 AM 34.8397 -83.8894 61° Northeast 162 186 9,100 -50 Climbing Atlanta Center
Wed 10:35:17 AM 34.8564 -83.8389 68° East 174 200 8,900 -100 Descending Atlanta Center
Wed 10:36:17 AM 34.8750 -83.7856 67° East 168 193 8,900  Level Atlanta Center
Wed 10:37:17 AM 34.8917 -83.7297 70° East 168 193 8,900 50 Level Atlanta Center
Wed 10:38:17 AM 34.9103 -83.6792 66° East 168 193 9,000 50 Climbing Atlanta Center
Wed 10:39:17 AM 34.9269 -83.6333 66° East 168 193 9,000 50 Level Atlanta Center
Wed 10:40:17 AM 34.9494 -83.5775 64° Northeast 158 182 9,100  Climbing Atlanta Center
Wed 10:41:17 AM 34.9681 -83.5267 66° East 158 182 9,000 -50 Descending Atlanta Center
Wed 10:42:17 AM 34.9847 -83.4786 67° East 158 182 9,000 50 Level Atlanta Center
Wed 10:43:17 AM 35.0031 -83.4278 66° East 158 182 9,100  Climbing Atlanta Center
Wed 10:44:17 AM 35.0258 -83.3667 66° East 166 191 9,000  Descending Atlanta Center
Wed 10:45:17 AM 35.0403 -83.3208 69° East 166 191 9,100 50 Climbing Atlanta Center
Wed 10:46:17 AM 35.0628 -83.2672 63° Northeast 166 191 9,100  Level Atlanta Center
Wed 10:47:18 AM 35.0833 -83.2114 66° East 166 191 9,100  Level Atlanta Center
Wed 10:48:17 AM 35.1017 -83.1628 65° Northeast 171 197 9,100 -50 Level Atlanta Center
Wed 10:49:17 AM 35.1222 -83.1094 65° Northeast 171 197 9,000  Descending Atlanta Center
Wed 10:50:17 AM 35.1425 -83.0508 67° East 177 204 9,100 50 Climbing Atlanta Center
Wed 10:51:17 AM 35.1611 -82.9997 66° East 172 198 9,100  Level Atlanta Center
Wed 10:52:17 AM 35.1814 -82.9436 66° East 173 199 9,100 -50 Level Atlanta Center
Wed 10:53:17 AM 35.2039 -82.8950 60° Northeast 173 199 9,000  Descending Atlanta Center
Wed 10:54:18 AM 35.2242 -82.8361 67° East 180 207 9,100 50 Climbing Atlanta Center
Wed 10:55:17 AM 35.2444 -82.7800 66° East 175 201 9,100 -50 Level Atlanta Center
Wed 10:56:17 AM 35.2628 -82.7314 65° Northeast 175 201 9,000 -50 Descending Atlanta Center
Wed 10:57:17 AM 35.2872 -82.6725 63° Northeast 175 201 9,000 50 Level Atlanta Center
Wed 10:58:17 AM 35.3075 -82.6186 65° Northeast 164 189 9,100 50 Climbing Atlanta Center
Wed 10:59:17 AM 35.3297 -82.5672 62° Northeast 175 201 9,100 -50 Level Atlanta Center
Wed 11:00:17 AM 35.3458 -82.5136 70° East 175 201 9,000 -50 Descending Atlanta Center
Wed 11:01:17 AM 35.3639 -82.4597 68° East 175 201 9,000 50 Level Atlanta Center
Wed 11:02:17 AM 35.3839 -82.4058 66° East 169 194 9,100 50 Climbing Atlanta Center
Wed 11:03:17 AM 35.4000 -82.3519 70° East 169 194 9,100 -50 Level Atlanta Center
Wed 11:04:17 AM 35.4181 -82.2956 69° East 170 196 9,000  Descending Atlanta Center
Wed 11:05:17 AM 35.4422 -82.2339 64° Northeast 171 197 9,100  Climbing Atlanta Center
Wed 11:06:17 AM 35.4603 -82.1850 66° East 176 203 9,000  Descending Atlanta Center
Wed 11:07:17 AM 35.4822 -82.1336 62° Northeast 176 203 9,100 50 Climbing Atlanta Center
Wed 11:08:17 AM 35.5025 -82.0822 64° Northeast 176 203 9,100  Level Atlanta Center
Wed 11:09:17 AM 35.5203 -82.0281 68° East 176 203 9,100  Level Atlanta Center
Wed 11:10:17 AM 35.5339 -81.9717 73° East 171 197 9,100 -50 Level Atlanta Center
Wed 11:11:17 AM 35.5497 -81.9125 72° East 171 197 9,000 -50 Descending Atlanta Center
Wed 11:12:17 AM 35.5633 -81.8586 73° East 166 191 9,000  Level Atlanta Center
Wed 11:13:17 AM 35.5831 -81.8044 66° East 166 191 9,000 -50 Level Atlanta Center
Wed 11:14:17 AM 35.5989 -81.7553 68° East 173 199 8,900  Descending Atlanta Center
Wed 11:15:17 AM 35.6147 -81.6989 71° East 173 199 9,000 50 Climbing Atlanta Center
Wed 11:16:17 AM 35.6322 -81.6419 69° East 173 199 9,000  Level Atlanta Center
Wed 11:17:17 AM 35.6500 -81.5853 69° East 173 199 9,000  Level Atlanta Center
Wed 11:18:17 AM 35.6675 -81.5286 69° East 173 199 9,000  Level Atlanta Center
Wed 11:19:17 AM 35.6872 -81.4692 68° East 173 199 9,000  Level Atlanta Center
Wed 11:20:17 AM 35.7069 -81.4122 67° East 173 199 9,000  Level Atlanta Center
Wed 11:21:17 AM 35.7286 -81.3603 63° Northeast 173 199 9,000  Level Atlanta Center
Wed 11:22:18 AM 35.7461 -81.3011 70° East 173 199 9,000  Level Atlanta Center
Wed 11:23:17 AM 35.7575 -81.2444 76° East 167 192 9,000  Level Atlanta Center
Wed 11:24:17 AM 35.7686 -81.1903 76° East 167 192 9,000  Level Atlanta Center
Wed 11:25:17 AM 35.7778 -81.1311 79° East 167 192 9,000  Level Atlanta Center
Wed 11:26:17 AM 35.7847 -81.0719 82° East 167 192 9,000  Level Atlanta Center
Wed 11:27:17 AM 35.7956 -81.0125 77° East 167 192 9,000  Level Atlanta Center
Wed 11:28:17 AM 35.8067 -80.9533 77° East 167 192 9,000  Level Atlanta Center
Wed 11:29:17 AM 35.8197 -80.8889 76° East 167 192 9,000  Level Atlanta Center
Wed 11:30:17 AM 35.8286 -80.8294 80° East 174 200 9,000 -50 Level Atlanta Center
Wed 11:31:17 AM 35.8417 -80.7700 75° East 174 200 8,900 -50 Descending Atlanta Center
Wed 11:32:17 AM 35.8506 -80.7108 79° East 174 200 8,900  Level Atlanta Center
Wed 11:33:17 AM 35.8614 -80.6539 77° East 174 200 8,900 50 Level Atlanta Center
Wed 11:34:17 AM 35.8700 -80.5922 80° East 174 200 9,000  Climbing Atlanta Center
Wed 11:35:17 AM 35.8789 -80.5303 80° East 179 206 8,900  Descending Atlanta Center
Wed 11:36:17 AM 35.8875 -80.4736 79° East 179 206 9,000 50 Climbing Atlanta Center
Wed 11:37:17 AM 35.8983 -80.4114 78° East 179 206 9,000  Level Atlanta Center
Wed 11:38:17 AM 35.9092 -80.3572 76° East 179 206 9,000  Level Atlanta Center
Wed 11:39:17 AM 35.9178 -80.2978 80° East 179 206 9,000 -100 Level Atlanta Center
Wed 11:40:17 AM 35.9281 -80.2256 80° East 184 212 8,800 -200 Descending Atlanta Center
Wed 11:42:00 AM 35.9178 -80.1278 97° East  Level FlightAware Approximate
Wed 11:49:00 AM 35.9927 -79.7337 77° East  Level FlightAware Approximate
Wed 11:50:00 AM 36.0032 -79.6778 77° East  Level FlightAware Approximate
Wed 11:51:00 AM 36.0137 -79.6218 77° East  Level FlightAware Approximate
Wed 11:52:00 AM 36.0242 -79.5658 77° East  Level FlightAware Approximate
Wed 11:53:00 AM 36.0333 -79.5096 90° East  Level FlightAware Approximate

Login

Don't have an account? Register now (free) for customized features, flight alerts, and more!